Time;durP1;ratioP1;P1;durP2;ratioP2;P2;SDS_P1;SDS_P2;PMS_P1;PMS_P2;Temp;Humidity;BMP_temperature;BMP_pressure;BME280_temperature;BME280_humidity;BME280_pressure;Samples;Min_cycle;Max_cycle;Signal;HPM_P1;HPM_P2
2020/12/20 00:02:08;;;;;;;9.40;8.40;;;9.70;99.90;;;;;;5093603;28;20173;-64
2020/12/20 00:04:33;;;;;;;9.20;8.30;;;9.60;99.90;;;;;;5093590;28;20457;-63
2020/12/20 00:06:59;;;;;;;8.70;7.70;;;9.60;99.90;;;;;;5093320;28;20208;-64
2020/12/20 00:09:24;;;;;;;9.80;8.90;;;9.60;99.90;;;;;;5093271;28;20224;-63
2020/12/20 00:11:52;;;;;;;8.83;8.00;;;9.60;99.90;;;;;;5093666;28;20169;-63
2020/12/20 00:14:26;;;;;;;8.73;7.93;;;9.60;99.90;;;;;;5086591;28;20177;-65
2020/12/20 00:16:56;;;;;;;8.80;8.03;;;9.60;99.90;;;;;;5072831;28;20807;-64
2020/12/20 00:19:22;;;;;;;9.50;8.60;;;9.50;99.90;;;;;;5072804;28;20460;-62
2020/12/20 00:21:56;;;;;;;8.60;7.80;;;9.60;99.90;;;;;;5073190;28;20500;-63
2020/12/20 00:24:21;;;;;;;8.83;7.87;;;9.60;99.90;;;;;;5073396;28;20156;-64
2020/12/20 00:26:47;;;;;;;9.03;8.10;;;9.50;99.90;;;;;;5072697;28;20903;-64
2020/12/20 00:29:13;;;;;;;8.80;7.90;;;9.50;99.90;;;;;;5072795;28;20467;-64
2020/12/20 00:31:39;;;;;;;8.33;7.57;;;9.50;99.90;;;;;;5072532;28;20443;-63
2020/12/20 00:34:06;;;;;;;8.67;7.80;;;9.50;99.90;;;;;;5073006;28;20174;-63
2020/12/20 00:36:32;;;;;;;9.60;8.70;;;9.60;99.90;;;;;;5072907;28;20625;-63
2020/12/20 00:38:58;;;;;;;8.23;7.43;;;9.60;99.90;;;;;;5072381;28;20433;-63
2020/12/20 00:41:24;;;;;;;9.17;8.17;;;9.50;99.90;;;;;;5073259;28;20180;-63
2020/12/20 00:43:49;;;;;;;9.50;7.73;;;9.60;99.90;;;;;;5072606;28;20517;-63
2020/12/20 00:46:15;;;;;;;9.60;8.70;;;9.60;99.90;;;;;;5074033;28;20180;-63
2020/12/20 00:48:42;;;;;;;9.57;7.60;;;9.60;99.90;;;;;;5076300;28;20214;-63
2020/12/20 00:51:08;;;;;;;9.17;8.27;;;9.60;99.90;;;;;;5075909;28;20202;-62
2020/12/20 00:53:35;;;;;;;8.87;8.07;;;9.60;99.90;;;;;;5075697;28;20406;-64
2020/12/20 00:56:01;;;;;;;9.40;7.60;;;9.60;99.90;;;;;;5076084;28;20407;-64
2020/12/20 00:58:26;;;;;;;7.67;6.90;;;9.60;99.90;;;;;;5076068;28;21014;-63
2020/12/20 01:00:52;;;;;;;8.40;7.70;;;9.50;99.90;;;;;;5075669;28;20165;-63
2020/12/20 01:03:18;;;;;;;8.57;7.67;;;9.60;99.90;;;;;;5076062;28;20169;-62
2020/12/20 01:05:44;;;;;;;9.50;8.60;;;9.60;99.90;;;;;;5075833;28;20179;-64
2020/12/20 01:08:09;;;;;;;8.93;8.07;;;9.60;99.90;;;;;;5075601;28;20205;-64
2020/12/20 01:10:36;;;;;;;8.77;7.73;;;9.60;99.90;;;;;;5075732;28;20569;-64
2020/12/20 01:13:02;;;;;;;7.73;7.03;;;9.60;99.90;;;;;;5076371;28;20168;-64
2020/12/20 01:15:29;;;;;;;10.73;9.83;;;9.50;99.90;;;;;;5075604;28;20827;-64
2020/12/20 01:17:56;;;;;;;7.80;7.00;;;9.40;99.90;;;;;;5075995;28;20633;-64
2020/12/20 01:20:22;;;;;;;11.30;7.50;;;9.40;99.90;;;;;;5074521;28;20440;-64
2020/12/20 01:22:48;;;;;;;9.23;8.27;;;9.50;99.90;;;;;;5075796;28;20410;-63
2020/12/20 01:25:14;;;;;;;8.60;7.80;;;9.50;99.90;;;;;;5075197;28;20824;-63
2020/12/20 01:27:40;;;;;;;7.67;7.00;;;9.50;99.90;;;;;;5075817;28;20572;-63
2020/12/20 01:30:06;;;;;;;7.13;6.53;;;9.50;99.90;;;;;;5075157;28;20176;-64
2020/12/20 01:32:31;;;;;;;9.33;8.20;;;9.40;99.90;;;;;;5075904;28;20606;-64
2020/12/20 01:34:57;;;;;;;8.67;7.87;;;9.40;99.90;;;;;;5075875;28;20402;-65
2020/12/20 01:37:23;;;;;;;7.60;6.47;;;9.40;99.90;;;;;;5075731;28;20266;-62
2020/12/20 01:39:49;;;;;;;8.00;7.30;;;9.40;99.90;;;;;;5075172;28;20176;-62
2020/12/20 01:42:14;;;;;;;6.90;6.30;;;9.40;99.90;;;;;;5075299;28;20531;-62
2020/12/20 01:44:40;;;;;;;9.50;7.60;;;9.40;99.90;;;;;;5079627;28;20490;-62
2020/12/20 01:47:07;;;;;;;7.80;7.00;;;9.40;99.90;;;;;;5089178;28;20227;-62
2020/12/20 01:49:33;;;;;;;7.60;6.80;;;9.40;99.90;;;;;;5095633;28;20398;-62
2020/12/20 01:52:00;;;;;;;8.07;7.37;;;9.50;99.90;;;;;;5095646;28;20409;-64
2020/12/20 01:54:26;;;;;;;8.70;7.80;;;9.50;99.90;;;;;;5094962;28;20431;-63
2020/12/20 01:56:52;;;;;;;7.23;6.63;;;9.30;99.90;;;;;;5094495;28;20412;-64
2020/12/20 01:59:17;;;;;;;7.17;6.50;;;9.20;99.90;;;;;;5095482;28;20648;-63
2020/12/20 02:01:43;;;;;;;8.60;7.80;;;9.20;99.90;;;;;;5095143;28;20408;-61
2020/12/20 02:04:09;;;;;;;8.03;7.33;;;9.00;99.90;;;;;;5098122;28;20635;-63
2020/12/20 02:06:34;;;;;;;6.97;6.37;;;9.20;99.90;;;;;;5095520;28;20260;-63
2020/12/20 02:09:00;;;;;;;8.07;7.27;;;9.20;99.90;;;;;;5094784;28;20294;-63
2020/12/20 02:11:25;;;;;;;7.90;6.60;;;9.30;99.90;;;;;;5094935;28;20168;-63
2020/12/20 02:13:52;;;;;;;7.00;6.40;;;9.30;99.90;;;;;;5092220;28;20591;-63
2020/12/20 02:16:20;;;;;;;7.80;7.10;;;9.20;99.90;;;;;;5073508;28;20546;-63
2020/12/20 02:18:47;;;;;;;7.50;6.90;;;9.30;99.90;;;;;;5073142;28;20457;-63
2020/12/20 02:21:16;;;;;;;6.40;5.90;;;9.40;99.90;;;;;;5075060;28;20432;-63
2020/12/20 02:23:43;;;;;;;11.20;6.77;;;9.50;99.90;;;;;;5074481;28;20407;-64
2020/12/20 02:26:11;;;;;;;7.17;6.47;;;9.60;99.90;;;;;;5074712;28;20407;-63
2020/12/20 02:28:37;;;;;;;7.13;6.40;;;9.60;99.90;;;;;;5074311;28;20438;-63
2020/12/20 02:31:02;;;;;;;7.97;7.20;;;9.60;99.90;;;;;;5073748;28;20406;-64
2020/12/20 02:33:29;;;;;;;7.73;6.20;;;9.60;99.90;;;;;;5074259;28;20507;-63
2020/12/20 02:35:55;;;;;;;6.53;6.03;;;9.40;99.90;;;;;;5074607;28;20180;-63
2020/12/20 02:38:21;;;;;;;6.13;5.53;;;9.40;99.90;;;;;;5074190;28;20438;-64
2020/12/20 02:40:46;;;;;;;7.87;7.07;;;9.50;99.90;;;;;;5074683;28;20177;-64
2020/12/20 02:43:12;;;;;;;7.53;6.63;;;9.50;99.90;;;;;;5074339;28;20252;-64
2020/12/20 02:45:38;;;;;;;7.87;7.17;;;9.40;99.90;;;;;;5074050;28;20185;-63
2020/12/20 02:48:03;;;;;;;7.70;7.00;;;9.40;99.90;;;;;;5073509;28;20216;-64
2020/12/20 02:50:29;;;;;;;6.83;6.23;;;9.40;99.90;;;;;;5073730;28;20227;-64
2020/12/20 02:52:54;;;;;;;7.37;6.57;;;9.10;99.90;;;;;;5074190;28;20546;-67
2020/12/20 02:55:20;;;;;;;7.97;7.27;;;9.20;99.90;;;;;;5074408;28;20173;-63
2020/12/20 02:57:46;;;;;;;7.87;7.07;;;9.30;99.90;;;;;;5074006;28;20196;-63
2020/12/20 03:00:12;;;;;;;8.40;7.60;;;9.30;99.90;;;;;;5074286;28;20176;-63
2020/12/20 03:02:38;;;;;;;8.33;7.50;;;9.40;99.90;;;;;;5074338;28;20188;-63
2020/12/20 03:05:04;;;;;;;8.33;7.57;;;9.30;99.90;;;;;;5074480;28;21093;-64
2020/12/20 03:07:29;;;;;;;8.00;7.30;;;9.30;99.90;;;;;;5073245;28;20280;-64
2020/12/20 03:09:55;;;;;;;7.80;7.10;;;9.30;99.90;;;;;;5073661;28;20653;-63
2020/12/20 03:12:22;;;;;;;8.57;7.03;;;9.20;99.90;;;;;;5074559;28;20183;-64
2020/12/20 03:14:48;;;;;;;8.33;7.53;;;9.20;99.90;;;;;;5074472;28;20183;-64
2020/12/20 03:17:14;;;;;;;6.90;6.27;;;9.20;99.90;;;;;;5074643;28;20430;-64
2020/12/20 03:19:39;;;;;;;7.67;6.97;;;9.20;99.90;;;;;;5074674;28;20443;-64
2020/12/20 03:22:05;;;;;;;7.57;6.87;;;9.30;99.90;;;;;;5074767;28;20174;-64
2020/12/20 03:24:31;;;;;;;7.60;6.90;;;9.40;99.90;;;;;;5074590;28;20183;-63
2020/12/20 03:26:56;;;;;;;7.30;6.70;;;9.50;99.90;;;;;;5074804;28;20558;-64
2020/12/20 03:29:22;;;;;;;8.00;7.30;;;9.50;99.90;;;;;;5075520;28;20168;-62
2020/12/20 03:31:47;;;;;;;8.60;6.77;;;9.40;99.90;;;;;;5073319;28;20227;-63
2020/12/20 03:34:13;;;;;;;6.90;6.27;;;9.40;99.90;;;;;;5073721;28;20175;-63
2020/12/20 03:36:39;;;;;;;9.20;7.30;;;9.50;99.90;;;;;;5073387;28;20204;-63
2020/12/20 03:39:04;;;;;;;8.07;6.53;;;9.50;99.90;;;;;;5073073;28;20667;-63
2020/12/20 03:41:30;;;;;;;7.20;6.60;;;9.50;99.90;;;;;;5073423;28;20200;-63
2020/12/20 03:43:56;;;;;;;7.97;6.70;;;9.50;99.90;;;;;;5073149;28;20187;-64
2020/12/20 03:46:22;;;;;;;10.10;7.47;;;9.50;99.90;;;;;;5072166;28;20175;-63
2020/12/20 03:48:48;;;;;;;7.63;6.10;;;9.50;99.90;;;;;;5073207;28;20847;-63
2020/12/20 03:51:13;;;;;;;7.83;7.13;;;9.50;99.90;;;;;;5073756;28;20173;-63
2020/12/20 03:53:39;;;;;;;8.63;6.80;;;9.60;99.90;;;;;;5073649;28;20202;-63
2020/12/20 03:56:08;;;;;;;7.80;6.60;;;9.70;99.90;;;;;;5074192;28;20208;-63
2020/12/20 03:58:33;;;;;;;7.63;6.93;;;9.70;99.90;;;;;;5085303;28;20274;-61
2020/12/20 04:00:59;;;;;;;8.27;7.50;;;9.80;99.90;;;;;;5092984;28;20513;-63
2020/12/20 04:03:25;;;;;;;7.67;6.97;;;9.80;99.90;;;;;;5093348;28;20224;-63
2020/12/20 04:05:50;;;;;;;9.00;7.50;;;9.80;99.90;;;;;;5093747;28;20174;-63
2020/12/20 04:08:16;;;;;;;7.80;7.10;;;9.70;99.90;;;;;;5093224;28;20261;-63
2020/12/20 04:10:41;;;;;;;8.00;7.30;;;9.80;99.90;;;;;;5093409;28;20626;-63
2020/12/20 04:13:07;;;;;;;8.00;7.20;;;9.70;99.90;;;;;;5093439;28;20224;-63
2020/12/20 04:15:34;;;;;;;6.97;6.27;;;9.70;99.90;;;;;;5092284;28;20197;-63
2020/12/20 04:17:59;;;;;;;7.20;6.53;;;9.70;99.90;;;;;;5073129;28;20204;-63
2020/12/20 04:20:25;;;;;;;8.13;7.33;;;9.70;99.90;;;;;;5073699;28;20422;-63
2020/12/20 04:22:50;;;;;;;6.77;6.17;;;9.70;99.90;;;;;;5076623;28;20629;-63
2020/12/20 04:25:16;;;;;;;7.73;6.73;;;9.70;99.90;;;;;;5076641;28;20172;-63
2020/12/20 04:27:41;;;;;;;7.80;7.10;;;9.70;99.90;;;;;;5075835;28;20211;-63
2020/12/20 04:30:07;;;;;;;8.00;7.40;;;9.60;99.90;;;;;;5076666;28;20271;-63
2020/12/20 04:32:33;;;;;;;7.73;6.93;;;9.70;99.90;;;;;;5076636;28;20263;-63
2020/12/20 04:34:59;;;;;;;6.87;6.17;;;9.60;99.90;;;;;;5076681;28;20184;-63
2020/12/20 04:37:25;;;;;;;7.80;7.00;;;9.60;99.90;;;;;;5080731;28;20453;-63
2020/12/20 04:39:50;;;;;;;8.40;7.60;;;9.70;99.90;;;;;;5080261;28;20189;-63
2020/12/20 04:42:16;;;;;;;8.03;7.33;;;9.60;99.90;;;;;;5076573;28;20176;-62
2020/12/20 04:44:42;;;;;;;6.70;6.10;;;9.60;99.90;;;;;;5076889;28;20177;-63
2020/12/20 04:47:09;;;;;;;7.87;7.07;;;9.60;99.90;;;;;;5076248;28;20216;-63
2020/12/20 04:49:36;;;;;;;9.47;7.13;;;9.60;99.90;;;;;;5076793;28;20415;-63
2020/12/20 04:52:02;;;;;;;8.53;7.40;;;9.50;99.90;;;;;;5076363;28;20453;-64
2020/12/20 04:54:29;;;;;;;8.30;7.50;;;9.50;99.90;;;;;;5075357;28;20884;-63
2020/12/20 04:56:54;;;;;;;9.53;7.50;;;9.30;99.90;;;;;;5076872;28;20507;-63
2020/12/20 04:59:20;;;;;;;7.67;6.97;;;9.30;99.90;;;;;;5076557;28;20437;-63
2020/12/20 05:01:46;;;;;;;7.67;6.90;;;9.40;99.90;;;;;;5075902;28;20659;-62
2020/12/20 05:04:11;;;;;;;7.97;7.23;;;9.20;99.90;;;;;;5076066;28;20172;-63
2020/12/20 05:06:37;;;;;;;8.13;7.33;;;9.10;99.90;;;;;;5076275;28;20567;-62
2020/12/20 05:09:05;;;;;;;8.40;7.60;;;9.20;99.90;;;;;;5076080;28;20561;-63
2020/12/20 05:11:32;;;;;;;10.90;7.77;;;9.20;99.90;;;;;;5076173;28;20267;-62
2020/12/20 05:13:58;;;;;;;8.17;7.37;;;9.10;99.90;;;;;;5075627;28;20507;-63
2020/12/20 05:16:36;;;;;;;9.27;8.47;;;9.20;99.90;;;;;;5075635;28;20490;-63
2020/12/20 05:19:03;;;;;;;9.23;8.33;;;9.10;99.90;;;;;;5075883;28;20212;-62
2020/12/20 05:21:29;;;;;;;9.23;7.80;;;9.10;99.90;;;;;;5075874;28;20465;-63
2020/12/20 05:23:56;;;;;;;7.87;7.17;;;9.10;99.90;;;;;;5075013;28;20817;-62
2020/12/20 05:26:30;;;;;;;8.27;7.50;;;9.20;99.90;;;;;;5075814;28;20442;-63
2020/12/20 05:29:09;;;;;;;8.63;7.93;;;9.20;99.90;;;;;;5075878;28;20476;-63
2020/12/20 05:31:34;;;;;;;9.47;8.50;;;9.20;99.90;;;;;;5075318;28;20475;-63
2020/12/20 05:34:01;;;;;;;8.93;7.40;;;9.20;99.90;;;;;;5075444;28;20399;-63
2020/12/20 05:36:27;;;;;;;10.43;9.43;;;9.20;99.90;;;;;;5075801;28;20527;-63
2020/12/20 05:38:53;;;;;;;9.87;8.83;;;9.30;99.90;;;;;;5075334;28;20452;-63
2020/12/20 05:41:31;;;;;;;11.37;10.27;;;9.30;99.90;;;;;;5075372;28;20410;-63
2020/12/20 05:44:19;;;;;;;11.63;10.50;;;9.10;99.90;;;;;;5075811;28;20520;-63
2020/12/20 05:46:47;;;;;;;10.03;9.03;;;9.20;99.90;;;;;;5075065;28;20861;-63
2020/12/20 05:49:20;;;;;;;8.83;8.00;;;9.20;99.90;;;;;;5075191;28;20429;-63
2020/12/20 05:52:09;;;;;;;8.33;7.60;;;9.20;99.90;;;;;;5075494;28;20831;-63
2020/12/20 05:54:42;;;;;;;9.87;8.23;;;9.30;99.90;;;;;;5075085;28;20403;-62
2020/12/20 05:57:23;;;;;;;9.77;8.87;;;9.20;99.90;;;;;;5075011;28;20975;-63
2020/12/20 05:59:53;;;;;;;9.03;8.23;;;9.20;99.90;;;;;;5083686;28;20838;-62
2020/12/20 06:02:19;;;;;;;8.60;7.80;;;9.20;99.90;;;;;;5095353;28;20418;-63
2020/12/20 06:04:46;;;;;;;9.30;8.47;;;9.10;99.90;;;;;;5095417;28;20452;-63
2020/12/20 06:07:14;;;;;;;9.53;8.07;;;9.20;99.90;;;;;;5094758;28;20548;-64
2020/12/20 06:10:10;;;;;;;10.23;9.23;;;9.20;99.90;;;;;;5080558;28;20408;-63
2020/12/20 06:12:39;;;;;;;10.27;9.13;;;9.20;99.90;;;;;;5073971;28;20414;-63
2020/12/20 06:15:11;;;;;;;9.73;8.70;;;9.30;99.90;;;;;;5074607;28;20412;-63
2020/12/20 06:17:43;;;;;;;10.70;9.13;;;9.30;99.90;;;;;;5074246;28;20443;-63
2020/12/20 06:20:21;;;;;;;14.33;9.97;;;9.20;99.90;;;;;;5074595;28;20457;-63
2020/12/20 06:22:53;;;;;;;10.33;9.10;;;9.20;99.90;;;;;;5074614;28;20842;-63
2020/12/20 06:25:23;;;;;;;9.53;8.53;;;9.30;99.90;;;;;;5074343;28;20394;-63
2020/12/20 06:27:50;;;;;;;11.50;9.27;;;9.30;99.90;;;;;;5074432;28;20520;-63
2020/12/20 06:30:15;;;;;;;8.83;8.03;;;9.30;99.90;;;;;;5074169;28;20486;-63
2020/12/20 06:32:46;;;;;;;9.60;8.67;;;9.30;99.90;;;;;;5074270;28;20496;-63
2020/12/20 06:35:22;;;;;;;9.83;8.93;;;9.30;99.90;;;;;;5074639;28;20516;-63
2020/12/20 06:37:47;;;;;;;8.33;7.63;;;9.30;99.90;;;;;;5074221;28;20842;-63
2020/12/20 06:40:19;;;;;;;10.50;8.50;;;9.30;99.90;;;;;;5073997;28;20422;-63
2020/12/20 06:42:45;;;;;;;7.83;7.03;;;9.20;99.90;;;;;;5074204;28;20171;-63
2020/12/20 06:45:18;;;;;;;8.87;8.07;;;9.20;99.90;;;;;;5073953;28;20413;-63
2020/12/20 06:47:46;;;;;;;8.97;8.00;;;9.20;99.90;;;;;;5073790;28;20209;-63
2020/12/20 06:50:12;;;;;;;7.97;6.73;;;9.30;99.90;;;;;;5074339;28;20414;-62
2020/12/20 06:52:45;;;;;;;7.70;6.90;;;9.30;99.90;;;;;;5074169;28;20407;-63
2020/12/20 06:55:15;;;;;;;7.13;6.50;;;9.20;99.90;;;;;;5073177;28;20177;-62
2020/12/20 06:58:11;;;;;;;7.93;7.23;;;9.20;99.90;;;;;;5074179;28;20461;-62
2020/12/20 07:00:37;;;;;;;8.73;7.47;;;9.30;99.90;;;;;;5072528;28;20474;-63
2020/12/20 07:03:03;;;;;;;8.50;7.70;;;9.20;99.90;;;;;;5073451;28;20422;-62
2020/12/20 07:05:39;;;;;;;7.60;6.90;;;9.20;99.90;;;;;;5074095;28;20210;-62
2020/12/20 07:08:09;;;;;;;7.93;7.13;;;9.10;99.90;;;;;;5073774;28;20203;-63
2020/12/20 07:10:42;;;;;;;8.57;7.17;;;9.10;99.90;;;;;;5073890;28;20404;-63
2020/12/20 07:13:10;;;;;;;7.90;7.23;;;9.20;99.90;;;;;;5074706;28;20972;-63
2020/12/20 07:15:50;;;;;;;7.60;6.90;;;9.10;99.90;;;;;;5077311;28;20411;-62
2020/12/20 07:18:47;;;;;;;8.20;7.40;;;9.20;99.90;;;;;;5076147;28;20416;-63
2020/12/20 07:21:38;;;;;;;9.80;7.40;;;9.20;99.90;;;;;;5073538;28;20978;-63
2020/12/20 07:24:09;;;;;;;8.00;7.20;;;9.20;99.90;;;;;;5073715;28;20390;-62
2020/12/20 07:26:35;;;;;;;7.67;6.97;;;9.10;99.90;;;;;;5073893;28;20449;-62
2020/12/20 07:29:02;;;;;;;6.23;5.57;;;9.00;99.90;;;;;;5074263;28;20430;-63
2020/12/20 07:31:29;;;;;;;9.50;6.60;;;9.10;99.90;;;;;;5081932;28;20174;-62
2020/12/20 07:33:54;;;;;;;8.07;7.27;;;9.10;99.90;;;;;;5093520;28;20408;-62
2020/12/20 07:36:24;;;;;;;7.50;6.90;;;9.10;99.90;;;;;;5093847;28;20417;-63
2020/12/20 07:38:50;;;;;;;8.33;6.70;;;9.10;99.90;;;;;;5086562;28;20231;-63
2020/12/20 07:41:17;;;;;;;7.80;7.10;;;9.10;99.90;;;;;;5073279;28;20410;-63
2020/12/20 07:43:46;;;;;;;8.80;8.00;;;9.10;99.90;;;;;;5073514;28;20481;-63
2020/12/20 07:46:13;;;;;;;7.10;6.50;;;9.10;99.90;;;;;;5072959;28;20435;-64
2020/12/20 07:48:39;;;;;;;7.87;7.07;;;9.20;99.90;;;;;;5073149;28;20439;-63
2020/12/20 07:51:12;;;;;;;10.07;8.53;;;9.30;99.90;;;;;;5073491;28;20495;-63
2020/12/20 07:53:48;;;;;;;14.00;12.53;;;9.20;99.90;;;;;;5072890;28;20403;-64
2020/12/20 07:56:31;;;;;;;15.70;10.73;;;9.30;99.90;;;;;;5072616;28;20816;-63
2020/12/20 07:58:58;;;;;;;10.33;8.60;;;9.30;99.90;;;;;;5073894;28;20425;-64
2020/12/20 08:01:24;;;;;;;10.10;9.10;;;9.30;99.90;;;;;;5073118;28;20406;-62
2020/12/20 08:04:03;;;;;;;8.10;7.30;;;9.40;99.90;;;;;;5073589;28;20401;-62
2020/12/20 08:06:29;;;;;;;9.93;8.27;;;9.50;99.90;;;;;;5073427;28;20176;-63
2020/12/20 08:09:02;;;;;;;9.53;8.37;;;9.50;99.90;;;;;;5073971;28;20427;-62
2020/12/20 08:11:28;;;;;;;9.47;8.37;;;9.60;99.90;;;;;;5095315;28;20164;-63
2020/12/20 08:13:59;;;;;;;8.20;7.47;;;9.70;99.90;;;;;;5093457;28;20406;-63
2020/12/20 08:16:36;;;;;;;9.27;6.77;;;9.70;99.90;;;;;;5093663;28;20382;-64
2020/12/20 08:19:14;;;;;;;9.03;6.67;;;9.60;99.90;;;;;;5093716;28;20506;-63
2020/12/20 08:21:48;;;;;;;9.10;7.60;;;9.70;99.90;;;;;;5093386;28;20404;-65
2020/12/20 08:24:14;;;;;;;8.07;7.37;;;9.80;99.90;;;;;;5093433;28;20772;-64
2020/12/20 08:26:41;;;;;;;7.83;6.83;;;9.90;99.90;;;;;;5093215;28;20482;-66
2020/12/20 08:29:07;;;;;;;7.80;7.00;;;9.90;99.90;;;;;;5093271;28;20425;-64
2020/12/20 08:31:34;;;;;;;7.93;7.13;;;9.90;99.90;;;;;;5093377;28;20464;-63
2020/12/20 08:34:00;;;;;;;7.20;6.50;;;10.00;99.90;;;;;;5093892;28;20407;-63
2020/12/20 08:36:27;;;;;;;7.93;7.03;;;10.10;99.90;;;;;;5093173;28;20406;-63
2020/12/20 08:38:54;;;;;;;9.30;7.33;;;10.20;99.90;;;;;;5088141;28;20779;-61
2020/12/20 08:41:26;;;;;;;7.97;6.93;;;10.10;99.90;;;;;;5073050;28;20408;-64
2020/12/20 08:44:02;;;;;;;8.53;7.73;;;10.10;99.90;;;;;;5073135;28;20395;-62
2020/12/20 08:46:29;;;;;;;7.43;6.83;;;10.00;99.90;;;;;;5072835;28;20400;-62
2020/12/20 08:49:19;;;;;;;8.50;7.70;;;9.70;99.90;;;;;;5072145;28;20444;-64
2020/12/20 08:51:46;;;;;;;8.40;7.50;;;9.80;99.90;;;;;;5073609;28;20391;-63
2020/12/20 08:54:12;;;;;;;7.90;7.10;;;9.80;99.90;;;;;;5073248;28;20404;-63
2020/12/20 08:56:54;;;;;;;8.60;7.80;;;9.90;99.90;;;;;;5073239;28;20415;-63
2020/12/20 08:59:34;;;;;;;9.70;8.70;;;10.10;99.90;;;;;;5072641;28;20213;-63
2020/12/20 09:02:00;;;;;;;7.90;7.17;;;10.10;99.90;;;;;;5072584;28;20435;-64
2020/12/20 09:04:31;;;;;;;8.63;7.83;;;10.30;99.90;;;;;;5072416;28;20408;-64
2020/12/20 09:07:02;;;;;;;8.40;7.60;;;10.40;99.90;;;;;;5074083;28;20470;-64
2020/12/20 09:09:28;;;;;;;8.83;7.93;;;10.50;99.90;;;;;;5076820;28;20476;-64
2020/12/20 09:12:08;;;;;;;8.97;8.17;;;10.60;99.90;;;;;;5076164;28;20416;-64
2020/12/20 09:14:33;;;;;;;9.80;8.83;;;10.60;99.90;;;;;;5076705;28;20414;-63
2020/12/20 09:16:59;;;;;;;8.87;7.97;;;10.20;99.90;;;;;;5076134;28;20437;-64
2020/12/20 09:19:24;;;;;;;9.97;9.00;;;10.30;99.90;;;;;;5075643;28;20270;-62
2020/12/20 09:21:50;;;;;;;10.23;9.23;;;10.40;99.90;;;;;;5076234;28;20166;-63
2020/12/20 09:24:15;;;;;;;15.40;9.20;;;10.40;99.90;;;;;;5076440;28;20215;-64
2020/12/20 09:26:53;;;;;;;8.37;7.57;;;10.60;99.90;;;;;;5076148;28;20194;-64
2020/12/20 09:29:18;;;;;;;9.60;8.70;;;10.80;99.90;;;;;;5074928;28;20155;-65
2020/12/20 09:31:44;;;;;;;10.50;9.40;;;11.00;99.90;;;;;;5075173;28;20416;-64
2020/12/20 09:34:09;;;;;;;11.07;9.90;;;11.00;99.90;;;;;;5075372;28;20162;-64
2020/12/20 09:36:36;;;;;;;10.40;9.40;;;11.00;99.90;;;;;;5076255;28;20653;-65
2020/12/20 09:39:03;;;;;;;11.03;8.10;;;11.10;99.90;;;;;;5075616;28;20700;-65
2020/12/20 09:41:30;;;;;;;10.60;8.80;;;11.10;99.90;;;;;;5075546;28;20401;-65
2020/12/20 09:43:58;;;;;;;9.37;8.47;;;11.20;99.90;;;;;;5075492;28;20427;-63
2020/12/20 09:46:26;;;;;;;10.97;8.53;;;11.40;99.90;;;;;;5076023;28;20767;-64
2020/12/20 09:48:53;;;;;;;8.70;7.83;;;11.60;99.90;;;;;;5074846;28;20468;-64
2020/12/20 09:51:20;;;;;;;9.60;8.60;;;11.60;99.90;;;;;;5075632;28;20436;-64
2020/12/20 09:53:47;;;;;;;9.20;8.30;;;11.60;99.90;;;;;;5075432;28;20896;-64
2020/12/20 09:56:13;;;;;;;10.07;8.50;;;11.60;99.90;;;;;;5075688;28;20463;-64
2020/12/20 09:58:40;;;;;;;9.50;8.53;;;11.60;99.90;;;;;;5074978;28;20433;-64
2020/12/20 10:01:05;;;;;;;9.30;8.40;;;11.50;99.90;;;;;;5074471;28;20433;-63
2020/12/20 10:03:31;;;;;;;9.20;8.13;;;11.70;99.90;;;;;;5083471;28;20436;-64
2020/12/20 10:05:58;;;;;;;9.77;8.70;;;11.90;99.90;;;;;;5095668;28;20192;-64
2020/12/20 10:08:24;;;;;;;10.27;9.27;;;12.10;99.90;;;;;;5095038;28;20321;-65
2020/12/20 10:10:54;;;;;;;10.43;9.33;;;12.00;99.90;;;;;;5095315;28;20963;-65
2020/12/20 10:13:20;;;;;;;8.87;8.07;;;12.10;99.90;;;;;;5095177;28;20395;-65
2020/12/20 10:15:46;;;;;;;10.27;8.73;;;11.90;99.90;;;;;;5095080;28;20446;-65
2020/12/20 10:18:12;;;;;;;8.47;7.67;;;11.80;99.90;;;;;;5090370;28;20437;-65
2020/12/20 10:20:38;;;;;;;9.03;8.17;;;11.90;99.90;;;;;;5075027;28;20182;-65
2020/12/20 10:23:05;;;;;;;9.37;8.20;;;12.10;99.90;;;;;;5078965;28;20421;-66
2020/12/20 10:25:31;;;;;;;9.30;8.40;;;12.20;99.90;;;;;;5081365;28;20665;-64
2020/12/20 10:27:57;;;;;;;8.80;7.90;;;11.90;99.90;;;;;;5074605;28;20456;-64
2020/12/20 10:30:25;;;;;;;9.10;8.20;;;11.70;99.90;;;;;;5074782;28;20400;-66
2020/12/20 10:32:51;;;;;;;8.33;7.53;;;11.80;99.90;;;;;;5075001;28;20890;-64
2020/12/20 10:35:23;;;;;;;9.73;8.77;;;12.00;99.90;;;;;;5074261;28;20483;-63
2020/12/20 10:37:50;;;;;;;9.27;8.37;;;12.00;99.90;;;;;;5074560;28;20448;-64
2020/12/20 10:40:16;;;;;;;9.70;8.70;;;12.20;99.90;;;;;;5073588;28;20422;-64
2020/12/20 10:42:42;;;;;;;8.03;7.33;;;12.20;99.90;;;;;;5074733;28;20396;-62
2020/12/20 10:45:08;;;;;;;9.73;8.77;;;12.30;99.90;;;;;;5074907;28;20410;-65
2020/12/20 10:47:33;;;;;;;9.27;8.37;;;12.40;99.90;;;;;;5074429;28;20557;-65
2020/12/20 10:49:59;;;;;;;9.40;8.10;;;12.50;99.90;;;;;;5074028;28;20174;-65
2020/12/20 10:52:26;;;;;;;9.13;8.23;;;12.40;99.90;;;;;;5073264;28;20598;-60
2020/12/20 10:54:52;;;;;;;9.40;8.43;;;12.50;99.90;;;;;;5073934;28;20234;-59
2020/12/20 10:57:17;;;;;;;8.67;7.77;;;12.40;99.90;;;;;;5074497;28;20432;-58
2020/12/20 10:59:43;;;;;;;9.73;8.77;;;12.50;99.90;;;;;;5074049;28;20255;-62
2020/12/20 11:02:08;;;;;;;9.50;8.60;;;12.40;99.90;;;;;;5073685;28;20198;-61
2020/12/20 11:04:34;;;;;;;9.80;8.80;;;12.30;99.90;;;;;;5074203;28;20227;-61
2020/12/20 11:07:01;;;;;;;9.10;8.20;;;12.20;99.90;;;;;;5074305;28;20208;-60
2020/12/20 11:09:27;;;;;;;9.07;8.20;;;12.40;99.90;;;;;;5073815;28;20162;-60
2020/12/20 11:11:54;;;;;;;9.90;8.83;;;12.70;99.90;;;;;;5074113;28;20888;-59
2020/12/20 11:14:20;;;;;;;9.37;8.57;;;12.90;99.90;;;;;;5073832;28;20546;-60
2020/12/20 11:16:49;;;;;;;11.90;9.07;;;13.20;99.90;;;;;;5073983;28;20837;-61
2020/12/20 11:19:14;;;;;;;14.33;10.73;;;13.40;99.90;;;;;;5073558;28;20451;-61
2020/12/20 11:21:40;;;;;;;10.30;9.30;;;13.70;99.90;;;;;;5073920;28;20420;-61
2020/12/20 11:24:06;;;;;;;9.87;8.87;;;14.00;99.90;;;;;;5074185;28;20172;-61
2020/12/20 11:26:35;;;;;;;9.93;8.77;;;14.00;99.90;;;;;;5074747;28;20220;-62
2020/12/20 11:29:01;;;;;;;10.40;9.00;;;13.90;99.90;;;;;;5072536;28;20465;-61
2020/12/20 11:31:27;;;;;;;11.37;8.47;;;14.10;99.90;;;;;;5073950;28;20404;-60
2020/12/20 11:33:52;;;;;;;11.87;8.83;;;14.20;99.90;;;;;;5073689;28;20177;-62
2020/12/20 11:36:22;;;;;;;11.27;8.93;;;14.10;99.90;;;;;;5074133;28;20468;-57
2020/12/20 11:38:49;;;;;;;9.60;8.70;;;14.10;99.90;;;;;;5077556;28;20187;-60
2020/12/20 11:41:20;;;;;;;9.77;8.87;;;13.90;99.90;;;;;;5077208;28;20764;-59
2020/12/20 11:43:45;;;;;;;9.73;8.00;;;13.60;99.90;;;;;;5074841;28;20920;-58
2020/12/20 11:46:12;;;;;;;8.77;7.90;;;13.60;99.90;;;;;;5073661;28;20488;-60
2020/12/20 11:48:38;;;;;;;10.13;9.07;;;13.90;99.90;;;;;;5073782;28;20600;-59
2020/12/20 11:51:04;;;;;;;11.03;8.10;;;14.10;99.90;;;;;;5073713;28;20980;-60
2020/12/20 11:53:30;;;;;;;8.90;8.00;;;14.20;99.90;;;;;;5073329;28;20407;-59
2020/12/20 11:55:55;;;;;;;12.73;8.30;;;14.20;99.90;;;;;;5103352;28;20518;-58
2020/12/20 11:58:21;;;;;;;8.67;7.80;;;14.00;99.90;;;;;;5112701;28;20722;-59
2020/12/20 12:00:48;;;;;;;9.60;7.73;;;13.90;99.90;;;;;;5113699;28;20172;-60
2020/12/20 12:03:15;;;;;;;9.43;8.60;;;13.70;99.90;;;;;;5113913;28;20169;-59
2020/12/20 12:05:42;;;;;;;9.00;8.20;;;14.00;99.90;;;;;;5113710;28;20411;-59
2020/12/20 12:08:09;;;;;;;9.03;8.13;;;13.90;99.90;;;;;;5114017;28;20547;-58
2020/12/20 12:10:39;;;;;;;9.57;8.57;;;14.00;99.90;;;;;;5113756;28;20500;-59
2020/12/20 12:13:05;;;;;;;8.97;8.03;;;14.40;99.90;;;;;;5114100;28;20394;-58
2020/12/20 12:15:33;;;;;;;10.93;9.83;;;14.40;99.90;;;;;;5114140;28;20426;-59
2020/12/20 12:17:58;;;;;;;10.80;9.80;;;14.30;99.90;;;;;;5110080;28;20187;-59
2020/12/20 12:20:24;;;;;;;10.87;9.87;;;14.20;99.90;;;;;;5073042;28;20448;-59
2020/12/20 12:22:50;;;;;;;12.63;10.17;;;14.30;99.90;;;;;;5073549;28;20194;-59
2020/12/20 12:25:16;;;;;;;11.57;10.53;;;14.40;99.90;;;;;;5073032;28;20167;-59
2020/12/20 12:27:42;;;;;;;11.23;10.23;;;14.30;99.90;;;;;;5073423;28;20824;-58
2020/12/20 12:30:09;;;;;;;12.93;11.30;;;14.00;99.90;;;;;;5073035;28;20206;-60
2020/12/20 12:32:35;;;;;;;11.60;10.13;;;13.90;99.90;;;;;;5073173;28;20162;-58
2020/12/20 12:35:01;;;;;;;10.30;9.30;;;13.60;99.90;;;;;;5072658;28;20426;-59
2020/12/20 12:37:26;;;;;;;11.87;10.03;;;13.30;99.90;;;;;;5073172;28;20424;-60
2020/12/20 12:39:52;;;;;;;11.03;9.93;;;13.20;99.90;;;;;;5072244;28;20689;-59
2020/12/20 12:42:18;;;;;;;10.57;9.50;;;13.20;99.90;;;;;;5074618;28;20201;-60
2020/12/20 12:44:43;;;;;;;11.80;9.50;;;12.90;99.90;;;;;;5076576;28;20622;-63
2020/12/20 12:47:10;;;;;;;10.43;9.40;;;12.80;99.90;;;;;;5076389;28;20661;-61
2020/12/20 12:49:36;;;;;;;10.50;9.20;;;13.00;99.90;;;;;;5076156;28;20173;-61
2020/12/20 12:52:02;;;;;;;12.23;9.27;;;12.90;99.90;;;;;;5076727;28;20949;-57
2020/12/20 12:54:28;;;;;;;9.57;8.57;;;13.00;99.90;;;;;;5076707;28;20407;-60